Date,TemperatureHighF,TemperatureAvgF,TemperatureLowF,DewpointHighF,DewpointAvgF,DewpointLowF,HumidityHigh,HumidityAvg,HumidityLow,PressureMaxIn,PressureMinIn,WindSpeedMaxMPH,WindSpeedAvgMPH,GustSpeedMaxMPH,PrecipitationSumIn
2013-9-14,52,38,32,39,34,30,93,89,62,30.07,30.00,5,0,8,0.00
2013-9-15,55,37,24,39,31,23,97,82,46,30.13,29.98,3,0,6,0.00
2013-9-16,55,41,28,31,28,26,91,64,35,29.98,29.69,12,1,13,0.00
2013-9-17,45,37,30,30,26,23,76,66,50,29.69,29.62,4,1,9,0.00
2013-9-18,38,34,28,33,30,27,95,87,76,29.75,29.66,2,0,4,0.08
2013-9-19,40,32,26,31,28,24,96,85,61,29.73,29.60,3,0,6,0.00
2013-9-20,38,30,23,30,26,21,96,88,64,29.60,29.21,1,0,4,0.00
2013-9-21,42,30,18,27,22,16,94,76,48,29.23,29.14,2,0,9,0.00
2013-9-22,33,30,27,30,27,23,95,89,82,29.52,29.23,2,1,8,0.01
2013-9-23,38,31,24,30,27,22,96,86,62,29.89,29.52,2,0,5,0.05
2013-9-24,41,35,30,30,27,24,93,74,53,30.04,29.75,3,1,11,0.01
2013-9-25,59,46,34,39,34,26,81,64,45,29.74,29.38,3,1,10,0.01
2013-9-26,48,42,36,40,38,33,93,83,71,29.64,29.32,2,0,7,0.00
2013-9-27,58,46,31,39,36,28,90,68,44,29.32,29.14,3,1,12,0.00
2013-9-28,48,38,30,38,34,28,95,87,66,29.33,29.24,2,0,7,0.04
2013-9-29,41,38,36,38,36,35,97,95,90,29.61,29.33,1,0,4,0.05
2013-9-30,42,37,31,35,33,29,96,87,65,29.84,29.61,2,0,7,0.00
2013-10-1,39,34,30,34,31,28,97,91,80,29.93,29.84,1,0,3,0.00
2013-10-2,47,37,30,36,32,28,94,84,60,29.93,29.83,1,0,6,0.00
2013-10-3,53,37,27,37,31,25,96,81,48,29.84,29.60,2,0,7,0.00
2013-10-4,39,33,27,34,30,25,96,90,81,29.84,29.59,1,0,3,0.00
2013-10-5,46,34,24,35,30,23,97,87,65,29.85,29.67,3,0,9,0.00
2013-10-6,44,35,29,34,31,27,95,85,66,29.72,29.65,2,0,6,0.00
2013-10-7,37,34,25,35,32,24,97,94,90,29.85,29.72,1,0,6,0.02
2013-10-8,51,42,25,38,33,24,97,72,53,29.72,28.96,5,2,13,0.01
2013-10-9,40,38,36,38,36,35,95,93,89,29.49,28.97,5,2,17,0.15
2013-10-10,41,32,24,33,29,22,96,88,71,29.72,29.62,2,0,8,0.01
2013-10-11,47,34,25,34,29,23,96,84,59,29.83,29.68,1,0,3,0.00
2013-10-12,54,36,25,37,30,23,96,80,47,29.80,29.67,2,0,8,0.00
2013-10-13,49,42,34,38,33,29,92,71,53,29.67,29.38,2,0,9,0.04
2013-10-14,46,37,30,39,34,29,97,90,72,29.91,29.57,3,0,9,0.03
2013-10-15,48,38,31,40,36,30,97,90,70,29.92,29.81,1,0,3,0.00
2013-10-16,53,44,38,43,40,36,96,85,64,30.06,29.89,2,0,6,0.00
2013-10-17,47,40,35,46,38,33,97,94,90,29.96,29.69,2,0,4,0.04
2013-10-18,51,38,30,43,35,28,98,91,68,29.69,29.56,1,0,3,0.00
2013-10-19,56,42,28,42,32,26,95,72,47,29.56,29.28,5,1,13,0.03
2013-10-20,48,34,27,37,30,26,96,87,60,29.88,29.56,1,0,4,0.00
2013-10-21,37,27,19,30,24,17,95,90,74,30.10,29.88,1,0,3,0.00
2013-10-22,37,24,17,28,21,15,94,87,69,30.18,30.10,1,0,3,0.00
2013-10-23,32,25,18,27,23,15,94,90,82,30.16,29.89,2,0,5,0.00
2013-10-24,36,29,18,26,23,16,93,78,58,29.99,29.67,3,1,11,0.00
2013-10-25,42,32,20,28,24,18,89,72,55,30.15,29.69,1,0,5,0.00
2013-10-26,34,20,10,27,16,8,92,87,73,30.50,30.16,1,0,4,0.00
2013-10-27,41,36,19,37,28,17,95,71,49,30.36,29.65,2,0,9,0.04
2013-10-28,55,42,38,42,38,35,95,85,59,29.64,29.00,3,1,11,0.06
2013-10-29,39,35,26,37,33,24,96,94,89,29.51,29.25,3,1,11,0.20
2013-10-30,35,28,22,33,26,20,97,94,89,29.47,29.17,1,0,4,0.01
2013-10-31,28,25,20,27,24,18,96,95,93,29.69,29.25,1,0,2,0.00
2013-11-1,28,26,24,27,24,22,96,94,90,30.10,29.70,1,0,4,0.00
2013-11-2,29,22,11,25,20,9,95,90,81,30.10,29.80,1,0,4,0.00
2013-11-3,27,17,10,25,15,8,96,91,89,29.83,29.62,0,0,2,0.00
2013-11-4,25,15,7,22,12,5,95,91,88,29.62,29.44,0,0,1,0.00
2013-11-5,26,19,10,24,16,8,95,91,86,30.23,29.52,2,0,11,0.00
2013-11-6,21,13,1,18,10,-2,93,88,80,30.34,30.14,2,0,9,0.00
2013-11-7,19,10,-8,9,4,-12,84,77,64,30.14,29.91,4,1,13,0.00
2013-11-8,11,-2,-14,9,-5,-18,90,85,81,30.25,30.01,0,0,2,0.00
2013-11-9,27,22,7,25,19,4,94,91,82,30.15,29.74,1,0,4,0.00
2013-11-10,32,29,26,31,27,24,97,94,92,29.90,29.74,2,0,6,0.00
2013-11-11,26,12,-4,24,9,-7,96,90,85,30.33,29.90,0,0,2,0.00
2013-11-12,13,4,-8,11,1,-11,91,88,84,30.34,30.08,0,0,1,0.00
2013-11-13,41,19,7,38,17,4,98,93,89,30.08,29.62,5,0,17,0.00
2013-11-14,43,32,20,38,28,14,96,86,73,30.07,29.60,9,4,23,0.76
2013-11-15,20,5,-6,14,2,-10,90,86,77,30.17,30.05,3,0,10,0.00
2013-11-16,13,7,-13,11,4,-17,92,88,81,30.39,30.11,1,0,3,0.00
2013-11-17,3,-4,-16,1,-7,-20,88,85,81,30.48,30.38,0,0,1,0.00
2013-11-18,5,3,-1,2,0,-4,88,87,85,30.38,30.22,0,0,0,0.00
2013-11-19,4,-9,-28,1,-13,-32,88,83,77,30.22,30.15,0,0,0,0.00
2013-11-20,-27,-32,-36,-32,-38,-100,78,74,74,30.43,30.22,0,-14,0,0.00
2013-11-21,3,-29,-38,0,-34,-44,88,77,73,30.39,29.64,0,0,1,0.00
2013-11-22,14,7,-1,11,4,-4,91,88,85,29.62,29.26,0,0,0,0.00
2013-11-23,8,1,-7,5,-2,-10,89,86,83,29.95,29.47,0,0,0,0.00
2013-11-24,11,2,-8,8,-1,-12,90,87,84,30.09,29.96,0,0,0,0.00
2013-11-25,13,3,-6,10,0,-10,90,87,84,30.11,29.95,0,0,0,0.00
2013-11-26,3,-3,-8,0,-6,-12,88,86,83,30.11,29.99,0,0,0,0.00
2013-11-27,6,2,-8,3,0,-12,88,87,84,30.10,29.90,0,0,0,0.00
2013-11-28,5,-2,-13,2,-6,-17,88,85,81,30.09,29.89,0,0,0,0.00
2013-11-29,-7,-12,-20,-10,-16,-24,85,83,79,30.40,30.09,0,0,0,0.00
2013-11-30,-10,-22,-29,-14,-26,-34,84,79,77,30.82,30.40,0,0,0,0.00
2013-12-1,-20,-26,-30,-24,-30,-34,81,78,77,30.85,30.81,0,0,0,0.00
2013-12-2,-8,-21,-26,-11,-25,-30,84,80,78,30.85,30.76,0,0,0,0.00
2013-12-3,7,0,-9,5,-3,-12,89,87,83,30.80,30.61,0,0,0,0.00
2013-12-4,8,-4,-12,5,-8,-16,89,85,82,30.62,30.49,0,0,0,0.00
2013-12-5,21,8,0,19,5,-4,93,89,86,30.51,30.44,0,0,0,0.00
2013-12-6,25,22,16,23,20,14,95,93,90,30.50,30.40,0,0,0,0.00
2013-12-7,27,23,18,25,22,16,96,94,92,30.43,30.30,0,0,0,0.00
2013-12-8,32,29,20,31,28,19,98,96,94,30.38,30.22,0,0,0,0.00
2013-12-9,32,29,27,31,28,26,98,96,94,30.25,30.13,0,0,0,0.00
2013-12-10,27,12,2,26,10,-2,96,89,82,30.38,30.13,0,0,0,0.00
2013-12-11,7,4,2,2,-2,-5,87,76,71,30.36,30.10,0,0,0,0.00
2013-12-12,4,3,2,-4,-6,-100,76,67,59,30.10,29.88,6,-10,19,0.00
2013-12-13,2,-2,-5,-4,-9,-12,75,70,66,29.88,29.34,3,2,13,0.00
2013-12-14,4,0,-2,0,-4,-7,85,83,68,29.43,29.23,3,0,10,0.00
2013-12-15,-2,-6,-16,-5,-10,-20,85,83,80,30.25,29.43,1,0,4,0.00
2013-12-16,-16,-32,-38,-20,-37,-43,80,75,73,30.48,30.25,0,0,1,0.00
2013-12-17,-9,-18,-30,-12,-22,-35,83,80,77,30.50,30.43,0,0,2,0.00
2013-12-18,-3,-12,-22,-7,-16,-27,85,82,78,30.44,29.90,0,0,2,0.00
2013-12-19,0,-5,-16,-3,-8,-20,87,85,82,29.90,29.80,0,0,2,0.00
2013-12-20,2,-3,-9,-1,-6,-12,88,85,83,29.84,29.70,0,0,0,0.00
2013-12-21,14,6,-8,12,3,-12,91,88,84,29.75,29.65,0,0,0,0.00
2013-12-22,14,7,-6,12,4,-9,92,89,84,29.87,29.58,2,0,9,0.00
2013-12-23,10,1,-8,6,-3,-12,90,85,81,30.25,29.87,2,0,8,0.00
2013-12-24,-8,-24,-34,-12,-28,-39,85,78,75,30.28,30.10,0,0,2,0.00
2013-12-25,-34,-38,-39,-40,-43,-45,75,74,73,30.16,30.09,0,0,1,0.00
2013-12-26,-39,-11,-39,-45,-84,-100,73,22,72,30.17,30.15,0,-678,0,0.00
2013-12-27,-34,-17,-39,-39,-76,-100,75,32,73,30.27,30.23,0,-569,0,0.00
2013-12-28,4,-11,-34,1,-15,-39,88,83,75,30.25,30.11,0,0,1,0.00
2013-12-29,5,-6,-18,2,-10,-22,89,84,81,30.17,29.98,0,0,1,0.00
2013-12-30,-18,-20,-22,-22,-24,-26,81,80,79,29.98,29.77,0,0,1,0.00
2013-12-31,-4,-15,-22,-8,-19,-26,86,82,79,29.87,29.56,0,0,2,0.00
2014-1-1,18,10,-5,16,8,-8,93,90,85,29.56,29.31,0,0,4,0.00
2014-1-2,10,4,-9,8,1,-12,90,88,84,30.13,29.55,0,0,1,0.00